Time;durP1;ratioP1;P1;durP2;ratioP2;P2;SDS_P1;SDS_P2;PMS_P1;PMS_P2;Temp;Humidity;BMP_temperature;BMP_pressure;BME280_temperature;BME280_humidity;BME280_pressure;Samples;Min_cycle;Max_cycle;Signal;HPM_P1;HPM_P2
2022/04/30 00:01:12;;;;;;;6.12;3.60;;;;;;;8.27;100.00;101729.16;1700042;83;21075;-77
2022/04/30 00:03:39;;;;;;;4.72;3.22;;;;;;;8.26;100.00;101728.77;1676368;85;21042;-78
2022/04/30 00:06:07;;;;;;;4.70;3.20;;;;;;;8.24;100.00;101731.89;1667097;84;21177;-77
2022/04/30 00:08:36;;;;;;;5.85;3.30;;;;;;;8.22;100.00;101730.67;1626636;87;21109;-78
2022/04/30 00:11:04;;;;;;;4.90;3.10;;;;;;;8.22;100.00;101737.16;1670303;85;21031;-77
2022/04/30 00:13:32;;;;;;;5.10;3.15;;;;;;;8.23;100.00;101740.58;1655080;86;21043;-79
2022/04/30 00:15:59;;;;;;;4.47;3.40;;;;;;;8.22;100.00;101737.16;1627489;88;21087;-77
2022/04/30 00:18:29;;;;;;;5.12;3.60;;;;;;;8.21;100.00;101740.66;1666687;84;21139;-77
2022/04/30 00:20:58;;;;;;;4.50;3.65;;;;;;;8.20;100.00;101735.94;1648465;85;21052;-77
2022/04/30 00:23:27;;;;;;;5.85;4.28;;;;;;;8.19;100.00;101729.50;1628846;85;20996;-77
2022/04/30 00:25:56;;;;;;;6.20;3.58;;;;;;;8.17;100.00;101722.27;1673114;85;21003;-77
2022/04/30 00:28:26;;;;;;;9.13;3.67;;;;;;;8.13;100.00;101725.91;1673196;85;21070;-84
2022/04/30 00:30:54;;;;;;;4.42;3.35;;;;;;;8.11;100.00;101720.80;1672931;84;22162;-80
2022/04/30 00:33:23;;;;;;;4.97;3.65;;;;;;;8.10;100.00;101719.56;1672691;84;21059;-78
2022/04/30 00:35:50;;;;;;;4.90;4.20;;;;;;;8.07;100.00;101714.53;1673262;84;21039;-77
2022/04/30 00:38:17;;;;;;;5.78;3.80;;;;;;;8.06;100.00;101707.19;1673478;84;21622;-79
2022/04/30 00:40:46;;;;;;;6.53;3.83;;;;;;;8.03;100.00;101702.16;1673224;84;21150;-78
2022/04/30 00:43:13;;;;;;;8.90;4.17;;;;;;;8.01;100.00;101709.17;1673256;84;21249;-80
2022/04/30 00:45:48;;;;;;;5.65;3.92;;;;;;;7.97;100.00;101708.47;1673294;85;21650;-80
2022/04/30 00:48:16;;;;;;;4.87;4.20;;;;;;;7.95;100.00;101713.35;1672977;85;21087;-79
2022/04/30 00:50:44;;;;;;;6.92;4.80;;;;;;;7.90;100.00;101709.20;1672951;85;21536;-80
2022/04/30 00:53:17;;;;;;;7.42;4.80;;;;;;;7.87;100.00;101705.48;1673337;85;21043;-78
2022/04/30 00:55:49;;;;;;;6.92;4.78;;;;;;;7.85;100.00;101705.99;1672842;84;21129;-79
2022/04/30 00:58:20;;;;;;;5.53;3.98;;;;;;;7.85;100.00;101709.88;1673024;85;21540;-80
2022/04/30 01:00:49;;;;;;;;;;;;;;;7.84;100.00;101706.08;1670091;85;21106;-79
2022/04/30 01:03:18;;;;;;;4.40;3.73;;;;;;;7.78;100.00;101709.78;1666527;84;20140;-78
2022/04/30 01:05:49;;;;;;;5.25;3.80;;;;;;;7.78;100.00;101711.52;1673577;84;21012;-79
2022/04/30 01:08:16;;;;;;;3.83;3.35;;;;;;;7.76;100.00;101706.41;1672974;85;21160;-78
2022/04/30 01:10:44;;;;;;;4.37;3.20;;;;;;;7.74;100.00;101709.08;1673695;85;21910;-78
2022/04/30 01:13:13;;;;;;;5.95;3.37;;;;;;;7.72;100.00;101712.20;1673392;84;21062;-83
2022/04/30 01:15:43;;;;;;;4.60;3.40;;;;;;;7.73;100.00;101717.77;1673600;84;21027;-78
2022/04/30 01:18:12;;;;;;;7.40;3.87;;;;;;;7.74;100.00;101716.00;1676233;84;22240;-79
2022/04/30 01:20:46;;;;;;;5.35;3.20;;;;;;;7.77;100.00;101723.66;1677291;84;21164;-79
2022/04/30 01:23:14;;;;;;;5.15;3.80;;;;;;;7.80;100.00;101718.78;1675191;84;21157;-78
2022/04/30 01:25:44;;;;;;;4.10;3.22;;;;;;;7.81;100.00;101725.66;1677917;85;21546;-79
2022/04/30 01:28:12;;;;;;;3.80;3.22;;;;;;;7.82;100.00;101720.86;1677874;85;21514;-77
2022/04/30 01:30:40;;;;;;;3.45;3.12;;;;;;;7.85;100.00;101712.95;1677802;85;21057;-78
2022/04/30 01:38:40;;;;;;;5.00;3.70;;;;;;;7.82;100.00;101716.49;1685828;84;21056;-79
2022/04/30 01:41:07;;;;;;;5.58;3.42;;;;;;;7.81;100.00;101714.81;1679323;84;21013;-77
2022/04/30 01:43:36;;;;;;;5.22;3.10;;;;;;;7.82;100.00;101720.38;1678205;84;21535;-76
2022/04/30 01:46:04;;;;;;;4.25;3.25;;;;;;;7.83;100.00;101723.84;1677660;84;21924;-78
2022/04/30 01:48:32;;;;;;;3.95;2.90;;;;;;;7.84;100.00;101726.82;1677637;84;21546;-77
2022/04/30 01:51:00;;;;;;;5.30;3.17;;;;;;;7.82;100.00;101720.86;1678285;85;21029;-83
2022/04/30 01:53:27;;;;;;;3.75;3.33;;;;;;;7.78;100.00;101721.45;1677771;84;21861;-84
2022/04/30 01:55:54;;;;;;;5.00;3.58;;;;;;;7.72;100.00;101720.44;1677476;84;21065;-84
2022/04/30 01:58:23;;;;;;;3.75;3.22;;;;;;;7.68;100.00;101720.18;1675090;84;21540;-77
2022/04/30 02:00:50;;;;;;;4.35;3.15;;;;;;;7.64;100.00;101718.19;1678150;84;21029;-77
2022/04/30 02:03:18;;;;;;;4.03;3.30;;;;;;;7.62;100.00;101715.28;1677768;84;21582;-78
2022/04/30 02:05:45;;;;;;;3.87;2.85;;;;;;;7.56;100.00;101706.02;1678340;84;21046;-77
2022/04/30 02:08:18;;;;;;;4.53;3.10;;;;;;;7.54;100.00;101706.53;1677812;85;21057;-77
2022/04/30 02:10:48;;;;;;;5.03;3.10;;;;;;;7.50;100.00;101705.84;1677694;84;21541;-77
2022/04/30 02:13:19;;;;;;;3.53;3.07;;;;;;;7.47;100.00;101705.99;1678219;85;22539;-77
2022/04/30 02:15:48;;;;;;;3.70;3.20;;;;;;;7.44;100.00;101703.52;1658448;84;21026;-76
2022/04/30 02:18:16;;;;;;;3.20;2.90;;;;;;;7.43;100.00;101705.72;1672143;83;21068;-77
2022/04/30 02:20:49;;;;;;;3.37;2.60;;;;;;;7.40;100.00;101704.12;1677545;84;21068;-77
2022/04/30 02:23:16;;;;;;;4.83;3.08;;;;;;;7.38;100.00;101698.62;1652578;85;21259;-76
2022/04/30 02:25:45;;;;;;;3.33;3.02;;;;;;;7.38;100.00;101694.27;1652328;85;21026;-77
2022/04/30 02:28:12;;;;;;;3.70;2.80;;;;;;;7.35;100.00;101686.64;1651824;85;21097;-76
2022/04/30 02:30:40;;;;;;;4.37;3.20;;;;;;;7.36;100.00;101690.92;1672895;84;21082;-76
2022/04/30 02:33:11;;;;;;;4.35;3.10;;;;;;;7.36;100.00;101688.77;1673512;85;21119;-78
2022/04/30 02:35:45;;;;;;;3.15;2.77;;;;;;;7.34;100.00;101697.92;1673086;85;21036;-78
2022/04/30 02:38:13;;;;;;;3.35;3.05;;;;;;;7.32;100.00;101702.31;1670114;84;21017;-76
2022/04/30 02:40:42;;;;;;;4.95;2.70;;;;;;;7.32;100.00;101698.89;1673222;85;21827;-77
2022/04/30 02:43:12;;;;;;;3.67;2.98;;;;;;;7.32;100.00;101702.31;1673721;85;21044;-84
2022/04/30 02:45:42;;;;;;;4.97;2.87;;;;;;;7.31;100.00;101700.63;1649231;85;21080;-80
2022/04/30 02:48:12;;;;;;;3.62;2.58;;;;;;;7.31;100.00;101698.51;1673409;84;21538;-78
2022/04/30 02:50:40;;;;;;;7.22;3.05;;;;;;;7.32;100.00;101698.89;1673642;84;21024;-77
2022/04/30 02:53:07;;;;;;;3.70;2.92;;;;;;;7.31;100.00;101703.69;1673210;84;21103;-78
2022/04/30 02:55:35;;;;;;;3.22;2.90;;;;;;;7.29;100.00;101700.31;1673693;85;21064;-77
2022/04/30 03:00:51;;;;;;;4.72;2.90;;;;;;;7.24;100.00;101697.48;1673460;85;22020;-78
2022/04/30 03:03:29;;;;;;;3.65;3.25;;;;;;;7.23;100.00;101694.51;1672842;85;21044;-79
2022/04/30 03:05:57;;;;;;;3.67;3.00;;;;;;;7.23;100.00;101698.39;1673685;85;21025;-78
2022/04/30 03:08:26;;;;;;;3.00;2.80;;;;;;;7.23;100.00;101697.09;1673288;84;21079;-78
2022/04/30 03:10:56;;;;;;;2.60;2.40;;;;;;;7.23;100.00;101698.39;1673602;85;21016;-77
2022/04/30 03:13:25;;;;;;;5.22;2.83;;;;;;;7.25;100.00;101700.44;1673781;85;21140;-77
2022/04/30 03:21:41;;;;;;;4.35;3.30;;;;;;;7.26;100.00;101700.00;1672986;84;21066;-77
2022/04/30 03:23:58;;;;;;;5.58;3.08;;;;;;;7.24;100.00;101710.44;1675533;85;21533;-77
2022/04/30 03:26:26;;;;;;;4.28;2.98;;;;;;;7.28;100.00;101715.47;1675443;84;21141;-76
2022/04/30 03:28:54;;;;;;;3.42;2.90;;;;;;;7.32;100.00;101720.92;1675659;85;21104;-76
2022/04/30 03:31:22;;;;;;;8.15;2.75;;;;;;;7.35;100.00;101726.81;1674801;85;21087;-76
2022/04/30 03:33:50;;;;;;;3.70;3.00;;;;;;;7.38;100.00;101731.84;1646157;85;21032;-76
2022/04/30 03:36:20;;;;;;;5.95;4.22;;;;;;;7.42;100.00;101735.99;1675572;84;21597;-78
2022/04/30 03:38:47;;;;;;;7.20;5.17;;;;;;;7.49;100.00;101744.32;1675900;84;21455;-78
2022/04/30 03:41:17;;;;;;;4.53;3.33;;;;;;;7.54;100.00;101746.27;1675440;85;21749;-79
2022/04/30 03:43:44;;;;;;;2.87;2.58;;;;;;;7.62;100.00;101751.57;1675513;85;21067;-79
2022/04/30 03:46:11;;;;;;;3.70;2.92;;;;;;;7.68;100.00;101755.18;1675677;84;21079;-80
2022/04/30 03:48:38;;;;;;;3.65;2.60;;;;;;;7.72;100.00;101747.66;1675983;84;21063;-80
2022/04/30 03:51:06;;;;;;;3.77;2.87;;;;;;;7.76;100.00;101744.48;1675783;85;21151;-79
2022/04/30 03:53:33;;;;;;;3.10;2.80;;;;;;;7.79;100.00;101749.06;1675422;85;21064;-85
2022/04/30 03:56:00;;;;;;;3.42;2.98;;;;;;;7.83;100.00;101744.11;1675853;84;21075;-79
2022/04/30 03:58:28;;;;;;;5.80;3.05;;;;;;;7.87;100.00;101739.63;1675783;84;21072;-79
2022/04/30 04:00:55;;;;;;;4.70;4.00;;;;;;;7.87;100.00;101734.44;1675435;85;21020;-79
2022/04/30 04:03:23;;;;;;;6.50;3.70;;;;;;;7.86;100.00;101725.83;1675514;85;21190;-80
2022/04/30 04:05:50;;;;;;;5.45;3.40;;;;;;;7.85;100.00;101724.14;1675643;85;21065;-79
2022/04/30 04:08:20;;;;;;;4.47;4.03;;;;;;;7.84;100.00;101719.87;1675679;85;21118;-80
2022/04/30 04:10:48;;;;;;;3.98;3.55;;;;;;;7.82;100.00;101715.20;1675672;85;21063;-79
2022/04/30 04:18:51;;;;;;;2.65;2.30;;;;;;;7.81;100.00;101732.13;1675529;85;21131;-79
2022/04/30 04:21:16;;;;;;;3.33;2.70;;;;;;;7.81;100.00;101733.43;1674948;84;20973;-79
2022/04/30 04:26:32;;;;;;;3.27;2.83;;;;;;;7.85;100.00;101731.92;1649857;85;21087;-80
2022/04/30 04:29:01;;;;;;;7.25;2.90;;;;;;;7.86;100.00;101737.94;1675584;85;21177;-79
2022/04/30 04:31:28;;;;;;;3.40;3.05;;;;;;;7.88;100.00;101746.50;1675370;85;21072;-79
2022/04/30 04:33:55;;;;;;;4.30;3.55;;;;;;;7.92;100.00;101747.20;1675758;84;21143;-78
2022/04/30 04:36:22;;;;;;;4.30;3.42;;;;;;;7.97;100.00;101745.25;1675627;85;21508;-80
2022/04/30 04:38:50;;;;;;;5.10;3.50;;;;;;;8.00;100.00;101739.91;1675664;85;21048;-79
2022/04/30 04:41:17;;;;;;;4.58;3.58;;;;;;;8.04;100.00;101742.29;1675478;85;21260;-79
2022/04/30 04:43:44;;;;;;;2.95;2.72;;;;;;;8.10;100.00;101746.36;1675668;85;21629;-80
2022/04/30 04:46:13;;;;;;;4.42;3.02;;;;;;;8.16;100.00;101752.55;1675388;84;21084;-79
2022/04/30 04:48:40;;;;;;;3.10;2.70;;;;;;;8.20;100.00;101745.02;1675791;85;21069;-80
2022/04/30 04:51:08;;;;;;;3.75;3.02;;;;;;;8.23;100.00;101740.14;1703383;82;21529;-80
2022/04/30 04:53:36;;;;;;;3.37;2.70;;;;;;;8.28;100.00;101742.05;1693192;83;21245;-80
2022/04/30 04:56:04;;;;;;;4.03;2.55;;;;;;;8.31;100.00;101744.52;1700504;83;21000;-79
2022/04/30 04:58:31;;;;;;;2.62;2.42;;;;;;;8.34;100.00;101753.90;1696561;83;21026;-79
2022/04/30 05:00:58;;;;;;;2.72;2.50;;;;;;;8.41;100.00;101744.08;1686985;84;21082;-79
2022/04/30 05:03:28;;;;;;;3.70;2.72;;;;;;;8.46;100.00;101740.32;1662604;84;21075;-79
2022/04/30 05:05:56;;;;;;;3.00;2.70;;;;;;;8.55;100.00;101736.93;1640392;85;21258;-77
2022/04/30 05:08:23;;;;;;;3.87;2.30;;;;;;;8.65;100.00;101734.27;1635547;87;21145;-79
2022/04/30 05:10:51;;;;;;;5.35;2.70;;;;;;;8.79;100.00;101729.23;1670542;85;21479;-79
2022/04/30 05:13:18;;;;;;;3.87;2.50;;;;;;;8.92;100.00;101726.86;1631542;86;21096;-84
2022/04/30 05:15:45;;;;;;;2.60;2.40;;;;;;;9.04;100.00;101731.89;1666371;86;21100;-84
2022/04/30 05:18:12;;;;;;;2.50;2.30;;;;;;;9.17;100.00;101732.59;1632636;86;21145;-84
2022/04/30 05:20:41;;;;;;;2.40;2.20;;;;;;;9.30;100.00;101729.72;1639017;86;21082;-82
2022/04/30 05:23:08;;;;;;;3.20;2.30;;;;;;;9.40;100.00;101734.83;1652707;85;21099;-81
2022/04/30 05:25:40;;;;;;;3.40;2.12;;;;;;;9.47;100.00;101737.48;1638810;86;21128;-79
2022/04/30 05:28:05;;;;;;;2.87;2.33;;;;;;;9.57;100.00;101738.30;1650240;85;21039;-78
2022/04/30 05:30:33;;;;;;;3.25;2.20;;;;;;;9.63;100.00;101734.90;1648181;86;21189;-76
2022/04/30 05:33:01;;;;;;;2.92;2.00;;;;;;;9.69;100.00;101736.34;1652507;84;21660;-79
2022/04/30 05:35:28;;;;;;;2.75;2.50;;;;;;;9.76;100.00;101736.39;1628570;86;21080;-79
2022/04/30 05:37:55;;;;;;;3.15;2.27;;;;;;;9.90;100.00;101743.89;1681366;85;20979;-79
2022/04/30 05:40:22;;;;;;;4.25;2.30;;;;;;;9.96;100.00;101737.08;1681182;85;21042;-79
2022/04/30 05:42:50;;;;;;;2.45;2.10;;;;;;;10.05;100.00;101742.23;1650163;86;21556;-79
2022/04/30 05:45:17;;;;;;;2.37;2.05;;;;;;;10.15;100.00;101742.55;1681246;85;21003;-79
2022/04/30 05:47:44;;;;;;;2.50;2.30;;;;;;;10.24;100.00;101736.84;1681069;85;21066;-79
2022/04/30 05:50:11;;;;;;;3.62;2.22;;;;;;;10.39;100.00;101739.91;1680000;83;21095;-80
2022/04/30 05:52:38;;;;;;;2.60;2.08;;;;;;;10.50;100.00;101735.39;1687074;83;21094;-79
2022/04/30 05:55:07;;;;;;;2.30;2.10;;;;;;;10.65;100.00;101731.56;1691493;83;21110;-80
2022/04/30 05:57:34;;;;;;;5.42;2.10;;;;;;;10.75;100.00;101739.67;1681378;83;21047;-79
2022/04/30 06:00:03;;;;;;;3.08;2.12;;;;;;;10.83;100.00;101730.95;1702705;83;21106;-80
2022/04/30 06:02:32;;;;;;;3.13;2.20;;;;;;;10.95;100.00;101728.91;1709324;84;21094;-79
2022/04/30 06:04:59;;;;;;;1.85;1.75;;;;;;;11.11;100.00;101726.70;1708646;83;21081;-79
2022/04/30 06:07:27;;;;;;;2.30;2.02;;;;;;;11.23;100.00;101722.52;1708026;83;21262;-81
2022/04/30 06:09:54;;;;;;;2.35;2.15;;;;;;;11.34;100.00;101721.41;1707906;83;20968;-79
2022/04/30 06:12:22;;;;;;;2.70;2.15;;;;;;;11.33;100.00;101719.73;1708700;83;21003;-80
2022/04/30 06:14:49;;;;;;;4.62;2.20;;;;;;;11.30;100.00;101723.37;1708053;83;21014;-79
2022/04/30 06:17:16;;;;;;;4.75;3.55;;;;;;;11.28;100.00;101718.70;1708733;83;21105;-81
2022/04/30 06:19:44;;;;;;;5.65;3.35;;;;;;;11.27;100.00;101726.15;1707580;83;21146;-81
2022/04/30 06:22:12;;;;;;;3.85;3.40;;;;;;;11.29;100.00;101732.12;1698491;83;21112;-79
2022/04/30 06:24:39;;;;;;;7.90;3.62;;;;;;;11.30;100.00;101739.46;1697446;83;21087;-80
2022/04/30 06:27:08;;;;;;;5.30;2.92;;;;;;;11.33;100.00;101736.23;1687782;83;21540;-79
2022/04/30 06:29:35;;;;;;;4.60;2.75;;;;;;;11.33;100.00;101730.16;1699333;83;21062;-79
2022/04/30 06:32:03;;;;;;;4.15;3.02;;;;;;;11.35;100.00;101736.95;1703577;83;21962;-79
2022/04/30 06:34:31;;;;;;;4.03;2.95;;;;;;;11.34;100.00;101737.06;1703690;83;21075;-88
2022/04/30 06:36:58;;;;;;;5.20;2.83;;;;;;;11.38;100.00;101732.49;1694673;83;21090;-84
2022/04/30 06:39:26;;;;;;;3.20;2.90;;;;;;;11.46;100.00;101735.47;1673474;83;21107;-83
2022/04/30 06:41:53;;;;;;;2.98;2.42;;;;;;;11.56;100.00;101731.38;1681394;83;21584;-81
2022/04/30 06:44:20;;;;;;;3.12;2.20;;;;;;;11.67;100.00;101732.02;1694524;83;21146;-81
2022/04/30 06:46:48;;;;;;;2.55;2.35;;;;;;;11.75;100.00;101731.52;1713594;83;21543;-78
2022/04/30 06:49:16;;;;;;;3.92;2.45;;;;;;;11.79;100.00;101727.80;1704013;82;21075;-79
2022/04/30 06:51:45;;;;;;;3.60;2.52;;;;;;;11.80;100.00;101730.78;1694726;82;21015;-79
2022/04/30 06:57:20;;;;;;;3.20;2.90;;;;;;;11.73;100.00;101726.41;1673332;85;21233;-78
2022/04/30 06:59:52;;;;;;;4.00;2.60;;;;;;;11.75;100.00;101731.07;1660604;83;21031;-79
2022/04/30 07:02:27;;;;;;;4.33;2.52;;;;;;;11.78;100.00;101729.55;1671831;84;21023;-78
2022/04/30 07:04:55;;;;;;;4.12;2.65;;;;;;;11.83;100.00;101725.36;1673894;82;21034;-79
2022/04/30 07:07:22;;;;;;;3.62;2.50;;;;;;;11.88;100.00;101731.59;1666023;85;21577;-79
2022/04/30 07:09:51;;;;;;;5.28;2.62;;;;;;;11.95;100.00;101723.74;1691096;82;21697;-78
2022/04/30 07:12:19;;;;;;;4.70;2.30;;;;;;;11.97;100.00;101722.77;1703868;82;21008;-85
2022/04/30 07:14:48;;;;;;;3.92;2.22;;;;;;;11.97;100.00;101719.30;1699728;84;21062;-85
2022/04/30 07:17:15;;;;;;;3.45;2.83;;;;;;;11.98;100.00;101719.20;1708290;82;21571;-78
2022/04/30 07:19:43;;;;;;;4.75;2.50;;;;;;;12.00;100.00;101717.81;1730652;82;21070;-79
2022/04/30 07:22:10;;;;;;;2.42;2.00;;;;;;;11.96;100.00;101713.23;1659513;82;21222;-78
2022/04/30 07:24:38;;;;;;;3.67;2.15;;;;;;;11.94;100.00;101712.48;1655242;86;21046;-78
2022/04/30 07:27:06;;;;;;;3.87;2.45;;;;;;;11.95;100.00;101713.30;1655038;85;21098;-78
2022/04/30 07:29:34;;;;;;;3.15;2.17;;;;;;;11.98;100.00;101710.06;1649121;84;21069;-79
2022/04/30 07:32:01;;;;;;;3.37;2.17;;;;;;;12.09;100.00;101707.23;1660691;84;21161;-78
2022/04/30 07:34:29;;;;;;;2.37;2.15;;;;;;;12.23;100.00;101704.57;1615000;87;21859;-80
2022/04/30 07:36:56;;;;;;;2.75;2.50;;;;;;;12.38;100.00;101692.30;1628130;86;21094;-78
2022/04/30 07:39:24;;;;;;;3.17;2.45;;;;;;;12.56;100.00;101694.16;1626983;86;21620;-78
2022/04/30 07:41:54;;;;;;;2.72;2.40;;;;;;;12.72;100.00;101691.82;1633460;86;21037;-78
2022/04/30 07:44:23;;;;;;;2.70;2.50;;;;;;;12.93;100.00;101694.77;1629136;86;21730;-81
2022/04/30 07:46:50;;;;;;;6.00;2.60;;;;;;;13.13;100.00;101686.86;1652418;85;21565;-79
2022/04/30 07:49:17;;;;;;;3.47;2.72;;;;;;;13.33;100.00;101688.58;1668021;86;21070;-79
2022/04/30 07:51:53;;;;;;;3.62;2.00;;;;;;;13.50;100.00;101684.80;1667735;86;21019;-79
2022/04/30 07:54:13;;;;;;;3.80;2.25;;;;;;;13.62;100.00;101681.78;1664512;85;21698;-84
2022/04/30 07:56:41;;;;;;;3.87;2.22;;;;;;;13.74;100.00;101686.12;1667896;84;21135;-78
2022/04/30 07:59:08;;;;;;;3.72;2.45;;;;;;;13.82;100.00;101686.91;1667825;85;21992;-78
2022/04/30 08:01:36;;;;;;;3.85;2.00;;;;;;;13.88;100.00;101685.14;1677870;83;21058;-77
2022/04/30 08:04:03;;;;;;;3.50;1.92;;;;;;;13.95;97.42;101681.62;1689610;84;21567;-80
2022/04/30 08:06:32;;;;;;;4.00;2.08;;;;;;;13.96;84.36;101681.50;1686799;83;21165;-78
2022/04/30 08:09:00;;;;;;;2.62;1.92;;;;;;;13.96;84.42;101683.30;1669359;85;21682;-82
2022/04/30 08:11:27;;;;;;;3.15;2.40;;;;;;;13.95;81.55;101681.13;1655966;86;21883;-83
2022/04/30 08:13:56;;;;;;;2.67;2.00;;;;;;;13.98;100.00;101687.95;1659063;83;21112;-81
2022/04/30 08:16:24;;;;;;;3.80;2.30;;;;;;;14.00;77.98;101676.42;1689193;84;20998;-79
2022/04/30 08:18:51;;;;;;;2.50;2.30;;;;;;;14.07;91.35;101675.47;1661833;84;21051;-80
2022/04/30 08:21:18;;;;;;;1.67;1.57;;;;;;;14.20;84.78;101671.03;1660180;84;21087;-78
2022/04/30 08:23:45;;;;;;;3.62;2.10;;;;;;;14.31;76.89;101666.30;1698523;83;21771;-78
2022/04/30 08:26:13;;;;;;;2.87;1.98;;;;;;;14.40;78.40;101668.69;1690402;83;21653;-82
2022/04/30 08:28:40;;;;;;;4.05;2.47;;;;;;;14.50;86.87;101662.30;1686010;83;21030;-79
2022/04/30 08:31:08;;;;;;;2.77;2.00;;;;;;;14.62;89.02;101665.78;1662924;84;21677;-79
2022/04/30 08:33:36;;;;;;;2.87;2.40;;;;;;;14.70;97.24;101659.98;1701462;83;21094;-80
2022/04/30 08:36:03;;;;;;;2.50;1.85;;;;;;;14.77;79.05;101664.65;1690268;83;21132;-79
2022/04/30 08:38:31;;;;;;;3.33;2.25;;;;;;;14.84;77.80;101665.00;1661002;84;37419;-80
2022/04/30 08:40:58;;;;;;;2.55;2.33;;;;;;;14.87;67.46;101665.23;1692390;81;21821;-79
2022/04/30 08:43:29;;;;;;;2.33;2.00;;;;;;;14.86;66.69;101660.97;1713817;82;21067;-80
2022/04/30 08:45:56;;;;;;;4.67;2.35;;;;;;;14.90;70.34;101667.14;1734456;81;21536;-81
2022/04/30 08:48:26;;;;;;;4.87;2.02;;;;;;;14.94;67.73;101662.52;1725735;82;21137;-79
2022/04/30 08:50:54;;;;;;;4.40;2.00;;;;;;;14.98;67.33;101650.83;1718328;82;21078;-79
2022/04/30 08:53:23;;;;;;;4.12;2.02;;;;;;;15.08;77.57;101654.88;1669070;85;21575;-79
2022/04/30 08:55:52;;;;;;;2.27;1.92;;;;;;;15.24;79.22;101647.96;1669594;85;21095;-78
2022/04/30 08:58:19;;;;;;;1.80;1.70;;;;;;;15.35;74.09;101649.25;1657238;86;21031;-78
2022/04/30 09:00:50;;;;;;;2.08;1.87;;;;;;;15.44;97.65;101638.02;1703127;83;21128;-80
2022/04/30 09:03:19;;;;;;;1.90;1.72;;;;;;;15.56;100.00;101643.26;1701890;84;21130;-82
2022/04/30 09:05:48;;;;;;;3.30;2.30;;;;;;;15.73;100.00;101645.83;1703048;82;21090;-79
2022/04/30 09:08:17;;;;;;;2.60;2.40;;;;;;;15.83;97.27;101640.66;1645807;86;21039;-79
2022/04/30 09:10:48;;;;;;;2.73;2.20;;;;;;;15.92;78.17;101647.36;1696392;83;21070;-78
2022/04/30 09:13:17;;;;;;;3.77;2.30;;;;;;;15.97;66.98;101639.11;1664530;84;21263;-78
2022/04/30 09:15:47;;;;;;;2.35;2.02;;;;;;;15.98;58.51;101634.67;1662957;86;21091;-80
2022/04/30 09:18:17;;;;;;;3.05;2.20;;;;;;;15.92;59.45;101639.48;1662277;86;21102;-79
2022/04/30 09:20:51;;;;;;;4.72;2.10;;;;;;;15.92;54.66;101647.82;1664433;83;21078;-79
2022/04/30 09:23:31;;;;;;;3.33;1.90;;;;;;;15.85;55.28;101638.78;1695637;83;21066;-81
2022/04/30 09:26:04;;;;;;;3.27;2.17;;;;;;;15.75;53.10;101644.74;1657637;86;21189;-79
2022/04/30 09:28:36;;;;;;;3.17;2.10;;;;;;;15.62;54.87;101642.76;1605111;87;21127;-79
2022/04/30 09:31:13;;;;;;;3.70;2.00;;;;;;;15.58;55.41;101634.80;1664306;85;21572;-78
2022/04/30 09:37:41;;;;;;;2.83;2.50;;;;;;;15.60;56.87;101631.08;1654734;86;21059;-79
2022/04/30 09:39:18;;;;;;;2.77;2.25;;;;;;;15.71;59.32;101626.73;1654662;86;21232;-78
2022/04/30 09:41:46;;;;;;;3.70;2.25;;;;;;;16.00;71.01;101623.07;1654631;86;21043;-83
2022/04/30 09:44:16;;;;;;;3.75;2.12;;;;;;;15.94;61.15;101615.70;1654620;86;21592;-82
2022/04/30 09:46:45;;;;;;;2.67;2.20;;;;;;;16.01;65.66;101613.42;1654215;86;21692;-79
2022/04/30 09:54:44;;;;;;;3.50;2.35;;;;;;;16.02;59.11;101604.58;1654514;86;21062;-79
2022/04/30 09:57:18;;;;;;;2.62;2.30;;;;;;;16.11;54.71;101599.85;1654542;86;21787;-80
2022/04/30 09:59:51;;;;;;;2.20;2.00;;;;;;;16.14;51.71;101609.30;1654190;86;21027;-78
2022/04/30 10:02:20;;;;;;;3.98;2.08;;;;;;;16.09;57.21;101602.61;1655769;85;21047;-78
2022/04/30 10:04:48;;;;;;;2.70;2.20;;;;;;;16.12;53.63;101591.50;1605899;86;21155;-78
2022/04/30 10:07:20;;;;;;;3.40;2.42;;;;;;;16.21;53.20;101590.73;1612837;86;21110;-78
2022/04/30 10:10:07;;;;;;;2.50;2.30;;;;;;;16.37;58.41;101594.21;1637135;86;21712;-78
2022/04/30 10:13:08;;;;;;;3.33;2.50;;;;;;;16.50;55.11;101586.12;1649759;86;21122;-78
2022/04/30 10:15:52;;;;;;;2.42;2.05;;;;;;;16.65;60.35;101586.13;1657785;84;21574;-79
2022/04/30 10:18:24;;;;;;;3.12;2.15;;;;;;;16.83;54.89;101590.77;1643410;86;22678;-78
2022/04/30 10:21:00;;;;;;;6.12;2.47;;;;;;;16.90;60.09;101584.01;1642203;85;21651;-78
2022/04/30 10:23:26;;;;;;;4.05;2.30;;;;;;;16.91;53.45;101577.78;1657699;84;21041;-84
2022/04/30 10:25:54;;;;;;;3.50;2.25;;;;;;;16.94;57.40;101567.50;1682939;81;21118;-79
2022/04/30 10:28:22;;;;;;;6.65;2.50;;;;;;;16.94;55.64;101565.72;1676104;84;21298;-79
2022/04/30 10:31:09;;;;;;;2.62;2.30;;;;;;;16.98;52.51;101570.23;1690046;81;21564;-78
2022/04/30 10:33:50;;;;;;;3.08;1.70;;;;;;;16.97;50.63;101567.25;1707372;83;21072;-81
2022/04/30 10:36:18;;;;;;;4.00;2.30;;;;;;;16.92;51.56;101568.08;1691716;83;21101;-78
2022/04/30 10:39:02;;;;;;;2.60;2.08;;;;;;;16.94;52.83;101559.61;1694417;83;20983;-77
2022/04/30 10:41:29;;;;;;;2.45;2.02;;;;;;;17.00;55.70;101559.06;1703034;82;21638;-79
2022/04/30 10:44:02;;;;;;;4.30;1.95;;;;;;;17.05;53.64;101553.41;1651966;83;21254;-78
2022/04/30 10:46:39;;;;;;;3.77;2.22;;;;;;;17.10;48.13;101560.43;1675179;83;21671;-83
2022/04/30 10:49:07;;;;;;;1.80;1.70;;;;;;;17.13;48.97;101558.82;1685464;84;21045;-78
2022/04/30 10:51:41;;;;;;;2.83;1.80;;;;;;;17.15;48.40;101562.98;1697621;83;21051;-78
2022/04/30 10:54:11;;;;;;;5.05;1.95;;;;;;;17.12;46.54;101548.80;1698322;83;21540;-78
2022/04/30 10:56:39;;;;;;;2.00;1.80;;;;;;;17.10;48.10;101552.53;1699634;83;21785;-78
2022/04/30 10:59:07;;;;;;;3.12;2.12;;;;;;;17.11;49.17;101546.28;1697995;84;21075;-87
2022/04/30 11:01:35;;;;;;;2.10;2.00;;;;;;;17.25;54.19;101545.91;1674615;84;21063;-84
2022/04/30 11:04:03;;;;;;;3.08;2.25;;;;;;;17.51;58.82;101544.03;1697965;83;21082;-79
2022/04/30 11:06:33;;;;;;;3.22;2.08;;;;;;;17.72;54.11;101543.89;1698203;83;21051;-78
2022/04/30 11:09:07;;;;;;;4.00;1.87;;;;;;;17.84;53.65;101531.41;1698263;83;22147;-78
2022/04/30 11:11:37;;;;;;;3.05;2.30;;;;;;;17.95;52.44;101539.20;1698372;83;21088;-78
2022/04/30 11:14:08;;;;;;;3.80;2.27;;;;;;;18.01;51.47;101530.37;1698150;83;21031;-78
2022/04/30 11:16:45;;;;;;;2.77;2.20;;;;;;;18.00;50.11;101526.06;1692525;83;21034;-85
2022/04/30 11:19:17;;;;;;;3.10;2.17;;;;;;;17.98;48.06;101523.58;1683061;83;21055;-78
2022/04/30 11:21:55;;;;;;;2.62;2.17;;;;;;;17.95;48.70;101522.07;1697986;83;21042;-82
2022/04/30 11:24:30;;;;;;;2.67;2.02;;;;;;;18.03;49.22;101525.30;1665688;82;21061;-78
2022/04/30 11:27:03;;;;;;;2.27;2.08;;;;;;;18.05;46.72;101519.41;1665118;84;21451;-78
2022/04/30 11:29:50;;;;;;;3.00;2.40;;;;;;;18.06;47.82;101514.98;1659844;82;21173;-77
2022/04/30 11:32:27;;;;;;;3.70;2.77;;;;;;;18.00;51.96;101515.53;1692565;84;21109;-78
2022/04/30 11:35:04;;;;;;;3.58;2.30;;;;;;;18.04;48.12;101511.65;1662668;84;21804;-78
2022/04/30 11:37:42;;;;;;;2.67;1.80;;;;;;;18.10;52.90;101501.37;1672497;84;21055;-78
2022/04/30 11:40:11;;;;;;;2.83;2.00;;;;;;;18.21;53.89;101493.78;1672603;84;21137;-78
2022/04/30 11:42:39;;;;;;;2.83;2.50;;;;;;;18.37;52.38;101497.60;1672754;84;21043;-79
2022/04/30 11:45:08;;;;;;;4.45;2.30;;;;;;;18.48;47.04;101503.17;1672707;84;21596;-78
2022/04/30 11:47:37;;;;;;;3.33;2.08;;;;;;;18.40;46.42;101490.70;1672707;84;21166;-78
2022/04/30 11:50:11;;;;;;;2.60;2.20;;;;;;;18.35;46.44;101495.59;1672448;84;21051;-79
2022/04/30 11:52:40;;;;;;;2.30;2.10;;;;;;;18.33;46.57;101489.62;1672879;84;21046;-85
2022/04/30 11:55:09;;;;;;;2.65;2.02;;;;;;;18.33;45.23;101479.93;1672573;85;21038;-84
2022/04/30 11:57:43;;;;;;;3.60;1.87;;;;;;;18.33;45.30;101483.03;1672704;84;21039;-78
2022/04/30 12:00:12;;;;;;;2.83;2.20;;;;;;;18.26;43.39;101484.13;1670338;84;21925;-79
2022/04/30 12:02:41;;;;;;;2.00;1.80;;;;;;;18.21;43.07;101483.70;1672230;85;21089;-78
2022/04/30 12:05:09;;;;;;;2.80;2.30;;;;;;;18.18;43.70;101477.42;1672260;84;21035;-79
2022/04/30 12:07:42;;;;;;;2.42;2.20;;;;;;;18.13;42.60;101476.53;1672640;85;21015;-79